sensor_id;sensor_type;location;lat;lon;timestamp;P1;durP1;ratioP1;P2;durP2;ratioP2
44508;SDS011;30214;52.246;14.408;2023-02-23T00:02:00;34.35;;;14.90;;
44508;SDS011;30214;52.246;14.408;2023-02-23T00:04:30;39.67;;;14.13;;
44508;SDS011;30214;52.246;14.408;2023-02-23T00:06:58;39.15;;;16.33;;
44508;SDS011;30214;52.246;14.408;2023-02-23T00:09:26;39.03;;;14.85;;
44508;SDS011;30214;52.246;14.408;2023-02-23T00:12:01;36.95;;;14.88;;
44508;SDS011;30214;52.246;14.408;2023-02-23T00:14:33;36.78;;;14.60;;
44508;SDS011;30214;52.246;14.408;2023-02-23T00:17:02;39.00;;;14.65;;
44508;SDS011;30214;52.246;14.408;2023-02-23T00:19:29;36.67;;;15.52;;
44508;SDS011;30214;52.246;14.408;2023-02-23T00:22:01;34.85;;;14.07;;
44508;SDS011;30214;52.246;14.408;2023-02-23T00:24:31;32.60;;;13.35;;
44508;SDS011;30214;52.246;14.408;2023-02-23T00:27:03;33.50;;;13.55;;
44508;SDS011;30214;52.246;14.408;2023-02-23T00:29:32;36.58;;;13.70;;
44508;SDS011;30214;52.246;14.408;2023-02-23T00:32:04;32.72;;;13.65;;
44508;SDS011;30214;52.246;14.408;2023-02-23T00:34:36;34.67;;;14.57;;
44508;SDS011;30214;52.246;14.408;2023-02-23T00:37:03;33.50;;;13.77;;
44508;SDS011;30214;52.246;14.408;2023-02-23T00:39:32;36.63;;;13.43;;
44508;SDS011;30214;52.246;14.408;2023-02-23T00:42:08;38.88;;;13.40;;
44508;SDS011;30214;52.246;14.408;2023-02-23T00:44:35;32.90;;;13.82;;
44508;SDS011;30214;52.246;14.408;2023-02-23T00:47:04;35.30;;;13.90;;
44508;SDS011;30214;52.246;14.408;2023-02-23T00:49:32;30.42;;;13.90;;
44508;SDS011;30214;52.246;14.408;2023-02-23T00:52:01;29.75;;;13.00;;
44508;SDS011;30214;52.246;14.408;2023-02-23T00:54:30;33.60;;;14.60;;
44508;SDS011;30214;52.246;14.408;2023-02-23T00:56:57;33.90;;;14.40;;
44508;SDS011;30214;52.246;14.408;2023-02-23T00:59:25;36.33;;;14.25;;
44508;SDS011;30214;52.246;14.408;2023-02-23T01:01:53;36.80;;;14.45;;
44508;SDS011;30214;52.246;14.408;2023-02-23T01:04:21;34.65;;;13.95;;
44508;SDS011;30214;52.246;14.408;2023-02-23T01:06:48;31.08;;;13.50;;
44508;SDS011;30214;52.246;14.408;2023-02-23T01:09:15;33.80;;;13.98;;
44508;SDS011;30214;52.246;14.408;2023-02-23T01:11:51;32.58;;;14.32;;
44508;SDS011;30214;52.246;14.408;2023-02-23T01:14:20;38.53;;;14.80;;
44508;SDS011;30214;52.246;14.408;2023-02-23T01:16:49;31.05;;;13.35;;
44508;SDS011;30214;52.246;14.408;2023-02-23T01:19:16;35.28;;;13.18;;
44508;SDS011;30214;52.246;14.408;2023-02-23T01:21:43;32.75;;;14.10;;
44508;SDS011;30214;52.246;14.408;2023-02-23T01:24:11;39.17;;;14.30;;
44508;SDS011;30214;52.246;14.408;2023-02-23T01:26:39;32.22;;;14.02;;
44508;SDS011;30214;52.246;14.408;2023-02-23T01:29:10;31.52;;;13.50;;
44508;SDS011;30214;52.246;14.408;2023-02-23T01:31:41;28.23;;;13.32;;
44508;SDS011;30214;52.246;14.408;2023-02-23T01:34:12;35.55;;;12.70;;
44508;SDS011;30214;52.246;14.408;2023-02-23T01:36:40;33.38;;;13.75;;
44508;SDS011;30214;52.246;14.408;2023-02-23T01:39:10;35.88;;;14.00;;
44508;SDS011;30214;52.246;14.408;2023-02-23T01:41:39;34.28;;;13.30;;
44508;SDS011;30214;52.246;14.408;2023-02-23T01:47:37;28.02;;;13.35;;
44508;SDS011;30214;52.246;14.408;2023-02-23T01:50:05;31.85;;;12.35;;
44508;SDS011;30214;52.246;14.408;2023-02-23T01:52:36;31.35;;;12.82;;
44508;SDS011;30214;52.246;14.408;2023-02-23T01:55:04;27.05;;;12.05;;
44508;SDS011;30214;52.246;14.408;2023-02-23T01:57:37;29.90;;;12.60;;
44508;SDS011;30214;52.246;14.408;2023-02-23T02:00:06;31.08;;;12.88;;
44508;SDS011;30214;52.246;14.408;2023-02-23T02:02:38;37.35;;;14.05;;
44508;SDS011;30214;52.246;14.408;2023-02-23T02:05:12;33.80;;;13.57;;
44508;SDS011;30214;52.246;14.408;2023-02-23T02:07:40;34.63;;;14.13;;
44508;SDS011;30214;52.246;14.408;2023-02-23T02:10:12;28.00;;;11.55;;
44508;SDS011;30214;52.246;14.408;2023-02-23T02:13:03;30.67;;;12.80;;
44508;SDS011;30214;52.246;14.408;2023-02-23T02:15:31;29.85;;;13.18;;
44508;SDS011;30214;52.246;14.408;2023-02-23T02:18:05;31.80;;;13.57;;
44508;SDS011;30214;52.246;14.408;2023-02-23T02:20:51;31.27;;;14.07;;
44508;SDS011;30214;52.246;14.408;2023-02-23T02:26:53;30.33;;;13.05;;
44508;SDS011;30214;52.246;14.408;2023-02-23T02:36:21;33.78;;;13.77;;
44508;SDS011;30214;52.246;14.408;2023-02-23T02:39:16;36.88;;;14.90;;
44508;SDS011;30214;52.246;14.408;2023-02-23T02:42:03;35.83;;;14.65;;
44508;SDS011;30214;52.246;14.408;2023-02-23T02:44:45;32.42;;;13.27;;
44508;SDS011;30214;52.246;14.408;2023-02-23T02:47:21;35.47;;;14.02;;
44508;SDS011;30214;52.246;14.408;2023-02-23T02:49:57;28.88;;;12.65;;
44508;SDS011;30214;52.246;14.408;2023-02-23T02:52:34;27.95;;;14.13;;
44508;SDS011;30214;52.246;14.408;2023-02-23T02:55:10;30.50;;;12.70;;
44508;SDS011;30214;52.246;14.408;2023-02-23T03:00:14;33.60;;;13.90;;
44508;SDS011;30214;52.246;14.408;2023-02-23T03:03:02;29.17;;;14.02;;
44508;SDS011;30214;52.246;14.408;2023-02-23T03:05:49;35.38;;;13.45;;
44508;SDS011;30214;52.246;14.408;2023-02-23T03:08:38;29.33;;;13.25;;
44508;SDS011;30214;52.246;14.408;2023-02-23T03:11:30;29.23;;;13.15;;
44508;SDS011;30214;52.246;14.408;2023-02-23T03:14:22;31.85;;;13.50;;
44508;SDS011;30214;52.246;14.408;2023-02-23T03:17:18;30.92;;;12.95;;
44508;SDS011;30214;52.246;14.408;2023-02-23T03:20:24;39.05;;;13.93;;
44508;SDS011;30214;52.246;14.408;2023-02-23T03:23:15;35.13;;;14.90;;
44508;SDS011;30214;52.246;14.408;2023-02-23T03:26:07;32.22;;;13.85;;
44508;SDS011;30214;52.246;14.408;2023-02-23T03:28:58;30.40;;;13.20;;
44508;SDS011;30214;52.246;14.408;2023-02-23T03:31:49;26.90;;;13.07;;
44508;SDS011;30214;52.246;14.408;2023-02-23T03:34:45;36.03;;;13.85;;
44508;SDS011;30214;52.246;14.408;2023-02-23T03:37:37;29.65;;;14.05;;
44508;SDS011;30214;52.246;14.408;2023-02-23T03:40:28;29.60;;;13.82;;
44508;SDS011;30214;52.246;14.408;2023-02-23T03:43:21;31.45;;;13.40;;
44508;SDS011;30214;52.246;14.408;2023-02-23T03:46:11;29.13;;;13.30;;
44508;SDS011;30214;52.246;14.408;2023-02-23T03:49:00;31.83;;;12.32;;
44508;SDS011;30214;52.246;14.408;2023-02-23T03:51:51;34.10;;;13.32;;
44508;SDS011;30214;52.246;14.408;2023-02-23T03:54:43;31.23;;;13.80;;
44508;SDS011;30214;52.246;14.408;2023-02-23T03:57:33;30.02;;;12.75;;
44508;SDS011;30214;52.246;14.408;2023-02-23T04:00:23;30.98;;;12.82;;
44508;SDS011;30214;52.246;14.408;2023-02-23T04:03:12;36.15;;;13.30;;
44508;SDS011;30214;52.246;14.408;2023-02-23T04:06:00;32.72;;;13.98;;
44508;SDS011;30214;52.246;14.408;2023-02-23T04:08:48;33.33;;;13.93;;
44508;SDS011;30214;52.246;14.408;2023-02-23T04:11:36;33.90;;;13.55;;
44508;SDS011;30214;52.246;14.408;2023-02-23T04:14:30;35.75;;;14.43;;
44508;SDS011;30214;52.246;14.408;2023-02-23T04:17:04;32.15;;;12.70;;
44508;SDS011;30214;52.246;14.408;2023-02-23T04:19:32;35.33;;;14.07;;
44508;SDS011;30214;52.246;14.408;2023-02-23T04:21:59;31.38;;;13.30;;
44508;SDS011;30214;52.246;14.408;2023-02-23T04:24:27;31.33;;;13.73;;
44508;SDS011;30214;52.246;14.408;2023-02-23T04:26:54;29.48;;;13.55;;
44508;SDS011;30214;52.246;14.408;2023-02-23T04:29:21;36.35;;;14.48;;
44508;SDS011;30214;52.246;14.408;2023-02-23T04:31:48;30.38;;;13.38;;
44508;SDS011;30214;52.246;14.408;2023-02-23T04:34:17;35.15;;;13.68;;
44508;SDS011;30214;52.246;14.408;2023-02-23T04:36:44;26.65;;;13.75;;
44508;SDS011;30214;52.246;14.408;2023-02-23T04:39:11;31.00;;;13.50;;
44508;SDS011;30214;52.246;14.408;2023-02-23T04:41:38;30.15;;;13.85;;
44508;SDS011;30214;52.246;14.408;2023-02-23T04:44:05;29.75;;;13.18;;
44508;SDS011;30214;52.246;14.408;2023-02-23T04:46:32;31.15;;;13.75;;
44508;SDS011;30214;52.246;14.408;2023-02-23T04:48:59;26.08;;;12.75;;
44508;SDS011;30214;52.246;14.408;2023-02-23T04:51:29;32.53;;;14.30;;
44508;SDS011;30214;52.246;14.408;2023-02-23T04:53:58;31.20;;;13.93;;
44508;SDS011;30214;52.246;14.408;2023-02-23T04:56:25;32.95;;;14.65;;
44508;SDS011;30214;52.246;14.408;2023-02-23T04:58:52;33.58;;;14.25;;
44508;SDS011;30214;52.246;14.408;2023-02-23T05:01:19;27.13;;;14.07;;
44508;SDS011;30214;52.246;14.408;2023-02-23T05:03:47;31.17;;;14.15;;
44508;SDS011;30214;52.246;14.408;2023-02-23T05:06:15;33.00;;;13.88;;
44508;SDS011;30214;52.246;14.408;2023-02-23T05:08:44;27.83;;;13.50;;
44508;SDS011;30214;52.246;14.408;2023-02-23T05:11:11;35.97;;;14.65;;
44508;SDS011;30214;52.246;14.408;2023-02-23T05:13:38;31.10;;;14.05;;
44508;SDS011;30214;52.246;14.408;2023-02-23T05:16:06;37.17;;;15.68;;
44508;SDS011;30214;52.246;14.408;2023-02-23T05:18:33;30.58;;;15.02;;
44508;SDS011;30214;52.246;14.408;2023-02-23T05:21:00;31.90;;;14.55;;
44508;SDS011;30214;52.246;14.408;2023-02-23T05:23:30;30.85;;;14.18;;
44508;SDS011;30214;52.246;14.408;2023-02-23T05:26:02;30.70;;;14.45;;
44508;SDS011;30214;52.246;14.408;2023-02-23T05:28:32;30.15;;;14.63;;
44508;SDS011;30214;52.246;14.408;2023-02-23T05:31:00;30.45;;;14.98;;
44508;SDS011;30214;52.246;14.408;2023-02-23T05:33:28;33.17;;;16.20;;
44508;SDS011;30214;52.246;14.408;2023-02-23T05:35:55;29.65;;;15.00;;
44508;SDS011;30214;52.246;14.408;2023-02-23T05:38:23;33.95;;;14.80;;
44508;SDS011;30214;52.246;14.408;2023-02-23T05:40:50;32.95;;;15.65;;
44508;SDS011;30214;52.246;14.408;2023-02-23T05:43:19;30.10;;;15.63;;
44508;SDS011;30214;52.246;14.408;2023-02-23T05:45:46;32.45;;;15.30;;
44508;SDS011;30214;52.246;14.408;2023-02-23T05:48:13;35.65;;;15.50;;
44508;SDS011;30214;52.246;14.408;2023-02-23T05:50:41;42.45;;;15.90;;
44508;SDS011;30214;52.246;14.408;2023-02-23T05:53:08;34.05;;;14.85;;
44508;SDS011;30214;52.246;14.408;2023-02-23T05:55:36;28.63;;;14.52;;
44508;SDS011;30214;52.246;14.408;2023-02-23T05:58:03;34.88;;;15.05;;
44508;SDS011;30214;52.246;14.408;2023-02-23T06:00:31;34.28;;;15.38;;
44508;SDS011;30214;52.246;14.408;2023-02-23T06:02:58;31.92;;;14.73;;
44508;SDS011;30214;52.246;14.408;2023-02-23T06:05:26;30.27;;;15.40;;
44508;SDS011;30214;52.246;14.408;2023-02-23T06:07:54;35.22;;;15.15;;
44508;SDS011;30214;52.246;14.408;2023-02-23T06:10:21;35.20;;;15.77;;
44508;SDS011;30214;52.246;14.408;2023-02-23T06:12:48;32.85;;;16.33;;
44508;SDS011;30214;52.246;14.408;2023-02-23T06:15:16;32.05;;;14.27;;
44508;SDS011;30214;52.246;14.408;2023-02-23T06:17:44;31.58;;;14.63;;
44508;SDS011;30214;52.246;14.408;2023-02-23T06:20:12;30.95;;;15.05;;
44508;SDS011;30214;52.246;14.408;2023-02-23T06:22:39;28.95;;;14.70;;
44508;SDS011;30214;52.246;14.408;2023-02-23T06:25:07;33.55;;;15.48;;
44508;SDS011;30214;52.246;14.408;2023-02-23T06:27:36;30.38;;;15.10;;
44508;SDS011;30214;52.246;14.408;2023-02-23T06:30:04;34.72;;;15.50;;
44508;SDS011;30214;52.246;14.408;2023-02-23T06:32:33;35.00;;;14.07;;
44508;SDS011;30214;52.246;14.408;2023-02-23T06:35:03;30.13;;;14.88;;
44508;SDS011;30214;52.246;14.408;2023-02-23T06:37:32;31.65;;;14.15;;
44508;SDS011;30214;52.246;14.408;2023-02-23T06:39:59;31.95;;;13.77;;
44508;SDS011;30214;52.246;14.408;2023-02-23T06:42:27;32.38;;;15.40;;
44508;SDS011;30214;52.246;14.408;2023-02-23T06:44:55;31.33;;;15.63;;
44508;SDS011;30214;52.246;14.408;2023-02-23T06:47:22;35.05;;;15.23;;
44508;SDS011;30214;52.246;14.408;2023-02-23T06:49:49;32.80;;;15.02;;
44508;SDS011;30214;52.246;14.408;2023-02-23T06:52:17;28.55;;;14.35;;
44508;SDS011;30214;52.246;14.408;2023-02-23T06:54:44;32.47;;;14.80;;
44508;SDS011;30214;52.246;14.408;2023-02-23T06:57:12;35.22;;;15.15;;
44508;SDS011;30214;52.246;14.408;2023-02-23T06:59:39;29.27;;;14.20;;
44508;SDS011;30214;52.246;14.408;2023-02-23T07:02:06;39.03;;;15.93;;
44508;SDS011;30214;52.246;14.408;2023-02-23T07:04:35;33.33;;;14.93;;
44508;SDS011;30214;52.246;14.408;2023-02-23T07:07:03;30.95;;;15.30;;
44508;SDS011;30214;52.246;14.408;2023-02-23T07:09:34;32.75;;;15.25;;
44508;SDS011;30214;52.246;14.408;2023-02-23T07:12:02;31.75;;;15.57;;
44508;SDS011;30214;52.246;14.408;2023-02-23T07:14:29;34.72;;;15.43;;
44508;SDS011;30214;52.246;14.408;2023-02-23T07:16:57;33.10;;;15.07;;
44508;SDS011;30214;52.246;14.408;2023-02-23T07:19:24;30.10;;;15.00;;
44508;SDS011;30214;52.246;14.408;2023-02-23T07:21:51;34.88;;;14.80;;
44508;SDS011;30214;52.246;14.408;2023-02-23T07:24:18;36.83;;;15.82;;
44508;SDS011;30214;52.246;14.408;2023-02-23T07:26:47;29.75;;;15.60;;
44508;SDS011;30214;52.246;14.408;2023-02-23T07:29:14;37.47;;;16.02;;
44508;SDS011;30214;52.246;14.408;2023-02-23T07:31:41;32.15;;;15.55;;
44508;SDS011;30214;52.246;14.408;2023-02-23T07:34:08;38.17;;;15.68;;
44508;SDS011;30214;52.246;14.408;2023-02-23T07:36:35;31.27;;;14.55;;
44508;SDS011;30214;52.246;14.408;2023-02-23T07:39:03;35.28;;;16.83;;
44508;SDS011;30214;52.246;14.408;2023-02-23T07:41:30;32.30;;;14.40;;
44508;SDS011;30214;52.246;14.408;2023-02-23T07:44:01;31.45;;;14.48;;
44508;SDS011;30214;52.246;14.408;2023-02-23T07:46:28;30.83;;;15.30;;
44508;SDS011;30214;52.246;14.408;2023-02-23T07:48:55;31.70;;;14.35;;
44508;SDS011;30214;52.246;14.408;2023-02-23T07:51:22;32.78;;;14.93;;
44508;SDS011;30214;52.246;14.408;2023-02-23T07:53:49;29.98;;;14.65;;
44508;SDS011;30214;52.246;14.408;2023-02-23T07:56:17;29.75;;;13.73;;
44508;SDS011;30214;52.246;14.408;2023-02-23T07:58:44;30.60;;;15.20;;
44508;SDS011;30214;52.246;14.408;2023-02-23T08:01:12;31.55;;;15.25;;
44508;SDS011;30214;52.246;14.408;2023-02-23T08:03:40;35.58;;;14.15;;
44508;SDS011;30214;52.246;14.408;2023-02-23T08:06:13;31.08;;;14.63;;
44508;SDS011;30214;52.246;14.408;2023-02-23T08:08:41;31.27;;;14.27;;
44508;SDS011;30214;52.246;14.408;2023-02-23T08:11:08;27.85;;;14.75;;
44508;SDS011;30214;52.246;14.408;2023-02-23T08:13:36;31.05;;;14.30;;
44508;SDS011;30214;52.246;14.408;2023-02-23T08:16:04;35.42;;;14.50;;
44508;SDS011;30214;52.246;14.408;2023-02-23T08:18:33;33.25;;;14.98;;
44508;SDS011;30214;52.246;14.408;2023-02-23T08:21:01;30.75;;;14.52;;
44508;SDS011;30214;52.246;14.408;2023-02-23T08:23:29;32.38;;;15.00;;
44508;SDS011;30214;52.246;14.408;2023-02-23T08:25:58;29.67;;;13.80;;
44508;SDS011;30214;52.246;14.408;2023-02-23T08:28:25;30.83;;;14.80;;
44508;SDS011;30214;52.246;14.408;2023-02-23T08:30:53;27.63;;;13.50;;
44508;SDS011;30214;52.246;14.408;2023-02-23T08:33:20;26.85;;;14.07;;
44508;SDS011;30214;52.246;14.408;2023-02-23T08:35:49;32.33;;;14.23;;
44508;SDS011;30214;52.246;14.408;2023-02-23T08:38:17;31.40;;;15.05;;
44508;SDS011;30214;52.246;14.408;2023-02-23T08:40:44;30.20;;;14.10;;
44508;SDS011;30214;52.246;14.408;2023-02-23T08:43:12;34.50;;;13.88;;
44508;SDS011;30214;52.246;14.408;2023-02-23T08:45:39;30.15;;;14.32;;
44508;SDS011;30214;52.246;14.408;2023-02-23T08:48:06;32.67;;;14.52;;
44508;SDS011;30214;52.246;14.408;2023-02-23T08:50:35;28.90;;;13.70;;
44508;SDS011;30214;52.246;14.408;2023-02-23T08:53:04;33.88;;;13.90;;
44508;SDS011;30214;52.246;14.408;2023-02-23T08:55:31;28.13;;;14.20;;
44508;SDS011;30214;52.246;14.408;2023-02-23T08:57:59;33.20;;;15.48;;
44508;SDS011;30214;52.246;14.408;2023-02-23T09:00:26;30.55;;;13.35;;
44508;SDS011;30214;52.246;14.408;2023-02-23T09:02:53;30.88;;;14.40;;
44508;SDS011;30214;52.246;14.408;2023-02-23T09:05:20;31.42;;;15.45;;
44508;SDS011;30214;52.246;14.408;2023-02-23T09:07:47;32.10;;;14.65;;
44508;SDS011;30214;52.246;14.408;2023-02-23T09:10:17;28.65;;;13.95;;
44508;SDS011;30214;52.246;14.408;2023-02-23T09:12:49;28.85;;;14.18;;
44508;SDS011;30214;52.246;14.408;2023-02-23T09:15:17;28.52;;;13.70;;
44508;SDS011;30214;52.246;14.408;2023-02-23T09:17:44;28.55;;;14.57;;
44508;SDS011;30214;52.246;14.408;2023-02-23T09:20:12;24.52;;;13.20;;
44508;SDS011;30214;52.246;14.408;2023-02-23T09:22:41;31.23;;;13.80;;
44508;SDS011;30214;52.246;14.408;2023-02-23T09:25:12;26.25;;;13.55;;
44508;SDS011;30214;52.246;14.408;2023-02-23T09:27:43;32.60;;;15.20;;
44508;SDS011;30214;52.246;14.408;2023-02-23T09:30:11;28.13;;;14.52;;
44508;SDS011;30214;52.246;14.408;2023-02-23T09:32:42;32.30;;;15.35;;
44508;SDS011;30214;52.246;14.408;2023-02-23T09:35:13;32.28;;;15.05;;
44508;SDS011;30214;52.246;14.408;2023-02-23T09:37:42;29.23;;;14.80;;
44508;SDS011;30214;52.246;14.408;2023-02-23T09:40:13;28.25;;;14.02;;
44508;SDS011;30214;52.246;14.408;2023-02-23T09:42:44;32.17;;;15.52;;
44508;SDS011;30214;52.246;14.408;2023-02-23T09:45:25;30.42;;;14.73;;
44508;SDS011;30214;52.246;14.408;2023-02-23T09:48:04;28.90;;;14.27;;
44508;SDS011;30214;52.246;14.408;2023-02-23T09:50:38;28.52;;;15.38;;
44508;SDS011;30214;52.246;14.408;2023-02-23T09:53:13;32.15;;;14.88;;
44508;SDS011;30214;52.246;14.408;2023-02-23T09:55:54;27.80;;;14.68;;
44508;SDS011;30214;52.246;14.408;2023-02-23T09:58:25;29.38;;;15.27;;
44508;SDS011;30214;52.246;14.408;2023-02-23T10:01:06;29.00;;;15.43;;
44508;SDS011;30214;52.246;14.408;2023-02-23T10:04:07;28.52;;;14.98;;
44508;SDS011;30214;52.246;14.408;2023-02-23T10:06:43;33.45;;;16.27;;
44508;SDS011;30214;52.246;14.408;2023-02-23T10:09:20;29.90;;;15.25;;
44508;SDS011;30214;52.246;14.408;2023-02-23T10:11:56;32.38;;;15.88;;
44508;SDS011;30214;52.246;14.408;2023-02-23T10:17:33;28.58;;;15.57;;
44508;SDS011;30214;52.246;14.408;2023-02-23T10:20:10;27.67;;;15.45;;
44508;SDS011;30214;52.246;14.408;2023-02-23T10:22:45;34.45;;;16.25;;
44508;SDS011;30214;52.246;14.408;2023-02-23T10:25:15;29.67;;;15.25;;
44508;SDS011;30214;52.246;14.408;2023-02-23T10:27:48;28.42;;;14.82;;
44508;SDS011;30214;52.246;14.408;2023-02-23T10:30:18;33.15;;;15.57;;
44508;SDS011;30214;52.246;14.408;2023-02-23T10:32:51;26.10;;;13.82;;
44508;SDS011;30214;52.246;14.408;2023-02-23T10:35:25;29.05;;;15.07;;
44508;SDS011;30214;52.246;14.408;2023-02-23T10:37:54;31.08;;;14.73;;
44508;SDS011;30214;52.246;14.408;2023-02-23T10:40:23;27.83;;;15.02;;
44508;SDS011;30214;52.246;14.408;2023-02-23T10:42:53;28.58;;;15.02;;
44508;SDS011;30214;52.246;14.408;2023-02-23T10:45:23;27.70;;;15.43;;
44508;SDS011;30214;52.246;14.408;2023-02-23T10:47:54;32.17;;;15.75;;
44508;SDS011;30214;52.246;14.408;2023-02-23T10:50:26;35.22;;;18.38;;
44508;SDS011;30214;52.246;14.408;2023-02-23T10:52:55;26.98;;;15.27;;
44508;SDS011;30214;52.246;14.408;2023-02-23T10:55:26;31.35;;;17.52;;
44508;SDS011;30214;52.246;14.408;2023-02-23T10:58:01;34.67;;;19.70;;
44508;SDS011;30214;52.246;14.408;2023-02-23T11:00:35;30.58;;;18.08;;
44508;SDS011;30214;52.246;14.408;2023-02-23T11:03:15;25.63;;;15.13;;
44508;SDS011;30214;52.246;14.408;2023-02-23T11:05:48;28.15;;;16.42;;
44508;SDS011;30214;52.246;14.408;2023-02-23T11:08:25;43.33;;;23.10;;
44508;SDS011;30214;52.246;14.408;2023-02-23T11:11:00;31.55;;;15.35;;
44508;SDS011;30214;52.246;14.408;2023-02-23T11:13:35;23.35;;;13.73;;
44508;SDS011;30214;52.246;14.408;2023-02-23T11:16:09;30.73;;;13.20;;
44508;SDS011;30214;52.246;14.408;2023-02-23T11:18:38;25.75;;;13.85;;
44508;SDS011;30214;52.246;14.408;2023-02-23T11:21:08;22.83;;;13.95;;
44508;SDS011;30214;52.246;14.408;2023-02-23T11:23:38;25.65;;;13.90;;
44508;SDS011;30214;52.246;14.408;2023-02-23T11:26:18;21.60;;;13.77;;
44508;SDS011;30214;52.246;14.408;2023-02-23T11:28:53;26.30;;;14.15;;
44508;SDS011;30214;52.246;14.408;2023-02-23T11:31:28;20.95;;;12.73;;
44508;SDS011;30214;52.246;14.408;2023-02-23T11:33:58;24.20;;;14.57;;
44508;SDS011;30214;52.246;14.408;2023-02-23T11:36:29;27.98;;;14.45;;
44508;SDS011;30214;52.246;14.408;2023-02-23T11:39:18;24.33;;;13.48;;
44508;SDS011;30214;52.246;14.408;2023-02-23T11:41:56;23.40;;;14.80;;
44508;SDS011;30214;52.246;14.408;2023-02-23T11:44:38;27.35;;;15.13;;
44508;SDS011;30214;52.246;14.408;2023-02-23T11:47:13;25.45;;;14.48;;
44508;SDS011;30214;52.246;14.408;2023-02-23T11:49:45;23.30;;;14.18;;
44508;SDS011;30214;52.246;14.408;2023-02-23T11:52:15;24.98;;;14.93;;
44508;SDS011;30214;52.246;14.408;2023-02-23T11:54:50;26.90;;;14.75;;
44508;SDS011;30214;52.246;14.408;2023-02-23T11:57:22;48.20;;;21.70;;
44508;SDS011;30214;52.246;14.408;2023-02-23T11:59:52;30.77;;;15.32;;
44508;SDS011;30214;52.246;14.408;2023-02-23T12:02:23;26.75;;;15.85;;
44508;SDS011;30214;52.246;14.408;2023-02-23T12:04:53;25.42;;;15.13;;
44508;SDS011;30214;52.246;14.408;2023-02-23T12:07:37;26.48;;;15.20;;
44508;SDS011;30214;52.246;14.408;2023-02-23T12:10:11;27.13;;;14.63;;
44508;SDS011;30214;52.246;14.408;2023-02-23T12:12:48;26.10;;;14.95;;
44508;SDS011;30214;52.246;14.408;2023-02-23T12:15:25;34.15;;;19.92;;
44508;SDS011;30214;52.246;14.408;2023-02-23T12:18:03;27.98;;;17.25;;
44508;SDS011;30214;52.246;14.408;2023-02-23T12:20:41;33.92;;;21.58;;
44508;SDS011;30214;52.246;14.408;2023-02-23T12:23:14;44.42;;;24.13;;
44508;SDS011;30214;52.246;14.408;2023-02-23T12:25:45;32.83;;;18.50;;
44508;SDS011;30214;52.246;14.408;2023-02-23T12:28:18;33.17;;;20.23;;
44508;SDS011;30214;52.246;14.408;2023-02-23T12:30:55;27.42;;;18.13;;
44508;SDS011;30214;52.246;14.408;2023-02-23T12:33:29;30.63;;;15.77;;
44508;SDS011;30214;52.246;14.408;2023-02-23T12:36:03;27.95;;;16.40;;
44508;SDS011;30214;52.246;14.408;2023-02-23T12:38:43;27.10;;;15.75;;
44508;SDS011;30214;52.246;14.408;2023-02-23T12:41:17;27.73;;;15.80;;
44508;SDS011;30214;52.246;14.408;2023-02-23T12:43:56;28.88;;;15.45;;
44508;SDS011;30214;52.246;14.408;2023-02-23T12:46:33;26.52;;;14.63;;
44508;SDS011;30214;52.246;14.408;2023-02-23T12:49:10;26.05;;;16.40;;
44508;SDS011;30214;52.246;14.408;2023-02-23T12:51:43;30.48;;;16.40;;
44508;SDS011;30214;52.246;14.408;2023-02-23T12:54:16;31.33;;;16.65;;
44508;SDS011;30214;52.246;14.408;2023-02-23T12:56:49;30.40;;;16.83;;
44508;SDS011;30214;52.246;14.408;2023-02-23T13:02:48;29.52;;;16.27;;
44508;SDS011;30214;52.246;14.408;2023-02-23T13:05:36;27.23;;;16.33;;
44508;SDS011;30214;52.246;14.408;2023-02-23T13:08:10;34.15;;;17.35;;
44508;SDS011;30214;52.246;14.408;2023-02-23T13:10:50;26.50;;;15.45;;
44508;SDS011;30214;52.246;14.408;2023-02-23T13:13:29;30.38;;;16.38;;
44508;SDS011;30214;52.246;14.408;2023-02-23T13:16:08;31.25;;;16.60;;
44508;SDS011;30214;52.246;14.408;2023-02-23T13:18:43;25.77;;;16.33;;
44508;SDS011;30214;52.246;14.408;2023-02-23T13:21:19;27.65;;;15.75;;
44508;SDS011;30214;52.246;14.408;2023-02-23T13:23:56;23.75;;;14.43;;
44508;SDS011;30214;52.246;14.408;2023-02-23T13:26:33;31.25;;;16.20;;
44508;SDS011;30214;52.246;14.408;2023-02-23T13:29:09;29.40;;;17.45;;
44508;SDS011;30214;52.246;14.408;2023-02-23T13:31:51;26.75;;;15.30;;
44508;SDS011;30214;52.246;14.408;2023-02-23T13:34:20;26.70;;;15.35;;
44508;SDS011;30214;52.246;14.408;2023-02-23T13:36:54;28.50;;;15.57;;
44508;SDS011;30214;52.246;14.408;2023-02-23T13:39:42;29.30;;;16.23;;
44508;SDS011;30214;52.246;14.408;2023-02-23T13:42:30;23.03;;;14.60;;
44508;SDS011;30214;52.246;14.408;2023-02-23T13:45:15;25.70;;;15.60;;
44508;SDS011;30214;52.246;14.408;2023-02-23T13:47:58;26.17;;;15.32;;
44508;SDS011;30214;52.246;14.408;2023-02-23T13:50:34;25.73;;;14.77;;
44508;SDS011;30214;52.246;14.408;2023-02-23T13:53:26;26.73;;;15.13;;
44508;SDS011;30214;52.246;14.408;2023-02-23T13:56:02;25.15;;;15.85;;
44508;SDS011;30214;52.246;14.408;2023-02-23T13:58:33;28.13;;;16.33;;
44508;SDS011;30214;52.246;14.408;2023-02-23T14:01:07;26.58;;;15.57;;
44508;SDS011;30214;52.246;14.408;2023-02-23T14:03:43;27.60;;;15.38;;
44508;SDS011;30214;52.246;14.408;2023-02-23T14:06:17;27.70;;;16.45;;
44508;SDS011;30214;52.246;14.408;2023-02-23T14:08:51;32.38;;;16.48;;
44508;SDS011;30214;52.246;14.408;2023-02-23T14:11:33;25.80;;;15.50;;
44508;SDS011;30214;52.246;14.408;2023-02-23T14:14:08;30.38;;;16.52;;
44508;SDS011;30214;52.246;14.408;2023-02-23T14:16:41;30.63;;;15.30;;
44508;SDS011;30214;52.246;14.408;2023-02-23T14:22:03;25.25;;;16.35;;
44508;SDS011;30214;52.246;14.408;2023-02-23T14:24:35;22.75;;;15.07;;
44508;SDS011;30214;52.246;14.408;2023-02-23T14:32:49;28.27;;;17.17;;
44508;SDS011;30214;52.246;14.408;2023-02-23T14:35:37;28.25;;;18.30;;
44508;SDS011;30214;52.246;14.408;2023-02-23T14:38:11;27.02;;;16.33;;
44508;SDS011;30214;52.246;14.408;2023-02-23T14:40:58;25.63;;;16.55;;
44508;SDS011;30214;52.246;14.408;2023-02-23T14:43:32;28.95;;;16.98;;
44508;SDS011;30214;52.246;14.408;2023-02-23T14:46:10;27.70;;;17.02;;
44508;SDS011;30214;52.246;14.408;2023-02-23T14:48:44;28.02;;;17.63;;
44508;SDS011;30214;52.246;14.408;2023-02-23T14:51:24;26.63;;;16.75;;
44508;SDS011;30214;52.246;14.408;2023-02-23T14:54:10;26.17;;;16.60;;
44508;SDS011;30214;52.246;14.408;2023-02-23T14:56:48;29.50;;;18.88;;
44508;SDS011;30214;52.246;14.408;2023-02-23T14:59:19;31.38;;;18.60;;
44508;SDS011;30214;52.246;14.408;2023-02-23T15:01:49;30.75;;;18.42;;
44508;SDS011;30214;52.246;14.408;2023-02-23T15:04:17;31.33;;;19.50;;
44508;SDS011;30214;52.246;14.408;2023-02-23T15:06:46;33.45;;;19.58;;
44508;SDS011;30214;52.246;14.408;2023-02-23T15:09:15;31.58;;;19.77;;
44508;SDS011;30214;52.246;14.408;2023-02-23T15:11:49;31.13;;;19.40;;
44508;SDS011;30214;52.246;14.408;2023-02-23T15:14:18;31.63;;;19.30;;